Time;durP1;ratioP1;P1;durP2;ratioP2;P2;SDS_P1;SDS_P2;PMS_P1;PMS_P2;Temp;Humidity;BMP_temperature;BMP_pressure;BME280_temperature;BME280_humidity;BME280_pressure;Samples;Min_cycle;Max_cycle;Signal;HPM_P1;HPM_P2
2023/01/30 00:00:32;;;;;;;;;33.75;31.00;;;;;5.91;66.92;101862.31;5037566;28;45507;-53
2023/01/30 00:02:57;;;;;;;;;31.25;29.75;;;;;6.03;67.18;101895.47;5037685;28;46277;-50
2023/01/30 00:05:23;;;;;;;;;36.75;31.00;;;;;6.04;67.47;101891.97;5037875;28;45546;-51
2023/01/30 00:07:48;;;;;;;;;31.50;27.50;;;;;6.05;67.20;101900.72;5038588;28;45531;-52
2023/01/30 00:10:13;;;;;;;;;35.75;32.75;;;;;6.04;67.41;101899.81;5038647;28;45486;-51
2023/01/30 00:12:39;;;;;;;;;29.25;27.50;;;;;6.04;67.25;101891.97;5037558;28;45978;-54
2023/01/30 00:15:05;;;;;;;;;31.50;29.50;;;;;6.07;67.40;101901.56;5038007;28;45454;-55
2023/01/30 00:17:30;;;;;;;;;30.50;28.50;;;;;6.05;67.03;101890.28;5036948;28;45434;-50
2023/01/30 00:19:56;;;;;;;;;38.25;35.00;;;;;6.05;67.32;101888.53;5037532;28;45354;-52
2023/01/30 00:22:21;;;;;;;;;38.25;36.00;;;;;6.06;67.55;101877.19;5037784;28;45988;-52
2023/01/30 00:24:46;;;;;;;;;35.25;30.25;;;;;6.08;66.96;101874.59;5038001;28;45364;-54
2023/01/30 00:27:12;;;;;;;;;34.25;32.25;;;;;6.09;67.17;101879.81;5020093;28;48677;-59
2023/01/30 00:29:37;;;;;;;;;34.25;29.00;;;;;6.11;67.21;101879.84;5037557;28;45483;-53
2023/01/30 00:32:03;;;;;;;;;32.50;29.50;;;;;6.11;66.96;101870.25;5037773;28;45908;-52
2023/01/30 00:34:28;;;;;;;;;39.00;35.25;;;;;6.10;67.19;101863.28;5037983;28;45381;-50
2023/01/30 00:36:54;;;;;;;;;40.25;35.00;;;;;6.10;67.47;101860.69;5038011;28;45982;-50
2023/01/30 00:39:19;;;;;;;;;27.50;25.25;;;;;6.06;67.61;101852.81;5038084;28;45780;-53
2023/01/30 00:47:12;;;;;;;;;32.25;29.75;;;;;6.11;67.10;101846.75;5037027;28;45463;-54
2023/01/30 00:49:37;;;;;;;;;42.75;36.00;;;;;6.10;67.21;101838.91;5037056;28;45558;-52
2023/01/30 00:52:04;;;;;;;;;32.25;29.75;;;;;6.11;66.96;101836.31;5037636;28;45385;-54
2023/01/30 00:54:30;;;;;;;;;34.00;29.25;;;;;6.10;66.93;101826.72;5037692;28;45492;-52
2023/01/30 00:56:55;;;;;;;;;35.00;29.25;;;;;6.12;67.00;101826.72;5036851;28;45546;-47
2023/01/30 00:59:20;;;;;;;;;34.50;32.75;;;;;6.07;66.94;101824.13;5036766;28;45389;-52
2023/01/30 01:01:46;;;;;;;;;29.25;29.25;;;;;6.06;67.24;101824.97;5036377;28;48328;-52
2023/01/30 01:04:12;;;;;;;;;31.00;30.25;;;;;6.09;66.79;101808.44;5036581;28;45392;-56
2023/01/30 01:06:38;;;;;;;;;30.25;27.50;;;;;6.08;67.18;101811.91;5019053;28;45457;-50
2023/01/30 01:09:04;;;;;;;;;40.50;34.75;;;;;6.07;67.02;101808.44;5037269;28;45580;-53
2023/01/30 01:11:29;;;;;;;;;33.25;33.00;;;;;6.06;67.20;101809.28;5037033;28;45480;-50
2023/01/30 01:13:56;;;;;;;;;33.00;31.25;;;;;6.06;67.27;101806.69;5037230;28;45387;-53
2023/01/30 01:16:23;;;;;;;;;38.25;33.00;;;;;6.07;67.22;101804.94;5037270;28;45467;-55
2023/01/30 01:18:49;;;;;;;;;35.25;30.00;;;;;6.09;66.91;101804.06;5036665;28;45389;-53
2023/01/30 01:21:15;;;;;;;;;33.25;32.00;;;;;6.10;66.72;101803.22;5018345;28;45429;-53
2023/01/30 01:23:40;;;;;;;;;35.75;29.00;;;;;6.08;67.02;101789.28;5037036;28;45492;-54
2023/01/30 01:26:06;;;;;;;;;39.75;34.50;;;;;6.11;66.79;101797.13;5037341;28;45451;-55
2023/01/30 01:28:31;;;;;;;;;32.25;31.25;;;;;6.11;66.52;101791.03;5028890;28;45640;-54
2023/01/30 01:30:56;;;;;;;;;32.25;30.25;;;;;6.09;66.52;101782.31;5036854;28;46010;-55
2023/01/30 01:33:26;;;;;;;;;35.00;29.00;;;;;6.08;67.07;101778.84;5036509;28;52193;-52
2023/01/30 01:35:55;;;;;;;;;35.00;31.50;;;;;6.10;66.66;101786.66;5037313;28;45527;-53
2023/01/30 01:38:20;;;;;;;;;32.00;27.50;;;;;6.11;66.77;101775.38;5036132;28;45450;-54
2023/01/30 01:41:00;;;;;;;;;32.00;30.50;;;;;6.10;66.99;101782.34;5028844;28;45456;-54
2023/01/30 01:43:29;;;;;;;;;37.75;31.75;;;;;6.11;66.59;101786.69;5037032;28;45460;-55
2023/01/30 01:46:03;;;;;;;;;34.00;31.25;;;;;6.10;66.40;101782.34;5036704;28;45428;-53
2023/01/30 01:48:39;;;;;;;;;37.00;35.25;;;;;6.11;66.91;101783.19;5035739;28;45419;-55
2023/01/30 01:51:17;;;;;;;;;35.25;35.25;;;;;6.12;66.93;101774.47;5036835;28;45471;-50
2023/01/30 01:53:48;;;;;;;;;33.50;28.50;;;;;6.14;66.83;101777.97;5036485;28;45542;-52
2023/01/30 01:56:16;;;;;;;;;32.00;27.75;;;;;6.14;66.63;101781.44;5036791;28;45342;-52
2023/01/30 01:58:46;;;;;;;;;40.75;35.25;;;;;6.11;66.49;101772.75;5036533;28;45480;-51
2023/01/30 02:01:12;;;;;;;;;33.00;31.00;;;;;6.12;67.24;101779.72;5035983;28;45497;-50
2023/01/30 02:03:42;;;;;;;;;28.25;26.25;;;;;6.09;66.74;101779.69;5035881;28;45414;-54
2023/01/30 02:06:10;;;;;;;;;31.75;29.00;;;;;6.15;67.04;101780.59;5036332;28;45412;-55
2023/01/30 02:08:48;;;;;;;;;31.25;30.75;;;;;6.16;66.80;101773.63;5036351;28;45479;-52
2023/01/30 02:11:36;;;;;;;;;30.00;28.25;;;;;6.18;66.37;101772.78;5018603;28;46184;-52
2023/01/30 02:14:02;;;;;;;;;30.25;27.50;;;;;6.18;66.49;101779.75;5035289;28;45572;-51
2023/01/30 02:16:27;;;;;;;;;33.50;32.00;;;;;6.17;66.14;101781.44;5035321;28;45510;-52
2023/01/30 02:18:53;;;;;;;;;40.50;32.50;;;;;6.18;66.26;101783.22;5034850;28;45574;-50
2023/01/30 02:21:25;;;;;;;;;33.25;30.50;;;;;6.18;65.83;101783.22;5035657;28;45519;-53
2023/01/30 02:24:53;;;;;;;;;39.50;29.25;;;;;6.16;66.21;101784.09;5035539;28;45549;-55
2023/01/30 02:27:39;;;;;;;;;38.50;34.25;;;;;6.13;66.11;101773.63;4954563;28;45657;-52
2023/01/30 02:30:46;;;;;;;;;35.25;32.00;;;;;6.06;66.20;101751.84;5036192;28;45429;-50
2023/01/30 02:33:40;;;;;;;;;29.25;28.50;;;;;6.02;66.07;101764.88;4971002;28;45576;-50
2023/01/30 02:36:14;;;;;;;;;34.00;28.50;;;;;6.05;66.25;101762.31;5035131;28;45470;-51
2023/01/30 02:39:07;;;;;;;;;35.25;33.50;;;;;6.06;66.35;101766.66;5036174;28;45535;-53
2023/01/30 02:41:53;;;;;;;;;33.75;31.00;;;;;6.03;66.16;101750.97;5035924;28;45345;-51
2023/01/30 02:44:32;;;;;;;;;37.75;32.00;;;;;6.07;66.58;101753.59;5035584;28;45408;-54
2023/01/30 02:47:06;;;;;;;;;39.50;30.50;;;;;6.03;65.84;101748.38;5017422;28;45781;-49
2023/01/30 02:49:38;;;;;;;;;32.00;29.50;;;;;6.04;66.38;101757.94;5035285;28;45456;-49
2023/01/30 02:52:06;;;;;;;;;38.75;35.50;;;;;6.00;66.51;101753.59;5035957;28;45381;-50
2023/01/30 02:54:32;;;;;;;;;29.00;27.00;;;;;5.97;66.30;101759.66;5035873;28;46185;-52
2023/01/30 02:56:59;;;;;;;;;26.25;25.00;;;;;5.95;66.25;101757.03;5035151;28;45416;-54
2023/01/30 02:59:32;;;;;;;;;41.00;38.00;;;;;6.06;66.36;101769.25;5035073;28;45467;-52
2023/01/30 03:02:19;;;;;;;;;30.00;28.75;;;;;6.02;66.50;101765.78;5034345;28;45545;-52
2023/01/30 03:05:12;;;;;;;;;33.75;30.25;;;;;6.00;66.40;101762.28;5035582;28;45432;-53
2023/01/30 03:07:48;;;;;;;;;37.75;33.00;;;;;5.97;66.75;101773.59;5024661;28;45488;-54
2023/01/30 03:10:28;;;;;;;;;36.00;29.25;;;;;5.93;66.52;101771.81;5017597;28;45428;-55
2023/01/30 03:13:00;;;;;;;;;33.50;32.00;;;;;5.96;66.64;101769.25;5035780;28;45436;-53
2023/01/30 03:16:11;;;;;;;;;26.75;26.50;;;;;5.94;66.44;101760.53;5034722;28;45544;-51
2023/01/30 03:18:40;;;;;;;;;35.75;28.00;;;;;5.89;66.64;101758.75;5026246;28;45604;-56
2023/01/30 03:21:06;;;;;;;;;34.50;29.00;;;;;5.87;66.83;101758.72;5035423;28;45437;-53
2023/01/30 03:23:32;;;;;;;;;33.75;29.75;;;;;5.87;66.82;101774.41;5034383;28;45572;-49
2023/01/30 03:25:58;;;;;;;;;31.50;29.25;;;;;5.83;67.07;101770.03;5034704;28;45513;-51
2023/01/30 03:28:25;;;;;;;;;34.50;30.25;;;;;5.77;67.15;101759.56;5033737;28;45599;-52
2023/01/30 03:30:50;;;;;;;;;33.00;31.00;;;;;5.83;67.94;101758.72;5017317;28;45473;-52
2023/01/30 03:33:16;;;;;;;;;28.25;27.25;;;;;5.84;67.42;101765.69;5034416;28;45842;-56
2023/01/30 03:35:42;;;;;;;;;32.50;28.50;;;;;5.86;67.70;101761.34;5034757;28;55509;-53
2023/01/30 03:38:08;;;;;;;;;30.25;30.00;;;;;5.83;68.01;101757.00;5035170;28;45459;-49
2023/01/30 03:40:33;;;;;;;;;32.75;28.50;;;;;5.88;68.04;101760.47;5035332;28;45400;-56
2023/01/30 03:42:58;;;;;;;;;32.75;29.50;;;;;5.89;68.20;101762.22;5034621;28;45606;-52
2023/01/30 03:45:24;;;;;;;;;31.50;28.00;;;;;5.89;68.07;101762.22;5035175;28;46203;-54
2023/01/30 03:47:49;;;;;;;;;30.00;29.50;;;;;5.93;68.44;101768.31;5034359;28;45553;-52
2023/01/30 03:50:14;;;;;;;;;32.25;30.75;;;;;5.91;68.65;101770.03;5034879;28;45460;-51
2023/01/30 03:52:40;;;;;;;;;32.75;29.50;;;;;5.90;68.85;101755.25;5035220;28;45566;-50
2023/01/30 03:55:06;;;;;;;;;36.25;30.25;;;;;5.91;68.94;101743.94;5034818;28;45503;-53
2023/01/30 03:57:31;;;;;;;;;35.50;31.50;;;;;5.91;68.95;101744.84;5033827;28;45332;-52
2023/01/30 03:59:56;;;;;;;;;31.75;27.25;;;;;5.90;68.85;101740.47;5034999;28;45510;-50
2023/01/30 04:02:22;;;;;;;;;30.25;28.50;;;;;5.91;68.90;101739.59;5034931;28;45571;-52
2023/01/30 04:04:49;;;;;;;;;28.75;28.00;;;;;5.94;69.13;101741.38;5016874;28;46968;-52
2023/01/30 04:07:15;;;;;;;;;36.50;32.25;;;;;5.92;68.95;101741.34;5034354;28;48267;-51
2023/01/30 04:09:40;;;;;;;;;27.75;26.25;;;;;5.93;68.88;101735.28;5034790;28;45385;-54
2023/01/30 04:12:06;;;;;;;;;27.00;24.75;;;;;5.97;68.67;101736.16;5033854;28;45591;-50
2023/01/30 04:14:31;;;;;;;;;31.25;28.75;;;;;5.97;68.88;101729.19;5034684;28;46393;-52
2023/01/30 04:16:57;;;;;;;;;33.75;30.75;;;;;5.94;68.61;101718.75;5034302;28;50719;-49
2023/01/30 04:19:22;;;;;;;;;30.25;27.00;;;;;5.93;68.56;101729.16;5033158;28;45428;-53
2023/01/30 04:21:47;;;;;;;;;38.25;32.00;;;;;5.92;68.84;101730.03;5034451;28;45590;-55
2023/01/30 04:24:13;;;;;;;;;33.00;28.75;;;;;5.93;68.96;101731.75;5033431;28;46027;-52
2023/01/30 04:26:38;;;;;;;;;32.75;31.00;;;;;5.93;68.46;101740.50;5033936;28;45598;-55
2023/01/30 04:29:03;;;;;;;;;31.25;31.25;;;;;5.94;68.96;101741.38;5034657;28;45413;-54
2023/01/30 04:31:29;;;;;;;;;31.50;27.75;;;;;5.95;69.06;101712.66;5034668;28;45423;-53
2023/01/30 04:33:54;;;;;;;;;32.00;32.00;;;;;5.97;68.68;101725.72;5034591;28;45707;-54
2023/01/30 04:36:19;;;;;;;;;30.50;29.00;;;;;5.98;68.92;101714.41;5033055;28;45518;-52
2023/01/30 04:38:44;;;;;;;;;38.50;30.50;;;;;6.00;68.77;101712.66;5033915;28;45435;-53
2023/01/30 04:41:10;;;;;;;;;37.00;32.75;;;;;6.05;68.74;101703.09;5037218;28;45621;-51
2023/01/30 04:43:35;;;;;;;;;39.75;33.75;;;;;6.06;68.59;101706.59;5037299;28;46191;-50
2023/01/30 04:46:01;;;;;;;;;34.00;32.50;;;;;6.04;68.27;101698.72;5037865;28;45491;-50
2023/01/30 04:48:26;;;;;;;;;29.00;26.75;;;;;6.08;68.62;101699.63;5035499;28;45553;-49
2023/01/30 04:50:53;;;;;;;;;32.00;29.50;;;;;6.04;68.87;101706.56;5018592;28;45452;-54
2023/01/30 04:53:19;;;;;;;;;27.75;24.25;;;;;6.05;68.55;101704.84;5036995;28;45550;-50
2023/01/30 04:55:45;;;;;;;;;34.25;33.00;;;;;6.02;68.75;101702.22;5037676;28;45401;-53
2023/01/30 04:58:11;;;;;;;;;33.00;31.75;;;;;5.99;69.03;101705.69;5037624;28;45306;-53
2023/01/30 05:00:37;;;;;;;;;32.00;27.75;;;;;6.00;68.95;101707.44;5037302;28;45700;-52
2023/01/30 05:03:02;;;;;;;;;32.75;27.00;;;;;6.02;69.04;101707.44;5037556;28;46257;-52
2023/01/30 05:05:28;;;;;;;;;27.25;26.75;;;;;6.06;68.80;101707.44;5036847;28;45415;-51
2023/01/30 05:07:53;;;;;;;;;30.25;28.00;;;;;6.09;69.24;101710.06;5037295;28;45421;-51
2023/01/30 05:10:19;;;;;;;;;31.25;31.00;;;;;6.10;68.79;101713.53;5036684;28;45681;-50
2023/01/30 05:12:44;;;;;;;;;31.25;29.25;;;;;6.09;69.40;101707.44;5037263;28;45892;-54
2023/01/30 05:15:11;;;;;;;;;31.00;29.25;;;;;6.08;69.40;101707.47;5037091;28;45483;-51
2023/01/30 05:17:37;;;;;;;;;35.25;31.50;;;;;6.10;69.44;101705.69;5037299;28;45573;-53
2023/01/30 05:20:04;;;;;;;;;23.75;23.75;;;;;6.11;69.55;101704.84;5036711;28;45566;-50
2023/01/30 05:22:29;;;;;;;;;27.00;26.25;;;;;6.11;69.56;101707.47;5036700;28;46453;-54
2023/01/30 05:24:55;;;;;;;;;32.00;31.50;;;;;6.13;69.07;101716.19;5037040;28;45412;-52
2023/01/30 05:27:20;;;;;;;;;31.50;28.75;;;;;6.14;69.39;101707.47;5036758;28;49285;-54
2023/01/30 05:29:45;;;;;;;;;36.25;31.75;;;;;6.12;69.69;101712.66;5037240;28;45345;-52
2023/01/30 05:32:15;;;;;;;;;29.50;27.25;;;;;6.16;69.46;101708.34;5035916;28;49749;-54
2023/01/30 05:34:41;;;;;;;;;31.00;30.25;;;;;6.15;69.57;101699.63;5036412;28;45542;-51
2023/01/30 05:37:06;;;;;;;;;36.75;33.00;;;;;6.13;69.84;101703.97;5036214;28;45436;-50
2023/01/30 05:39:31;;;;;;;;;36.75;31.00;;;;;6.12;69.75;101706.56;5034878;28;45612;-52
2023/01/30 05:41:57;;;;;;;;;22.75;21.25;;;;;6.14;70.05;101703.09;5036815;28;46189;-53
2023/01/30 05:44:23;;;;;;;;;29.75;26.00;;;;;6.10;70.01;101697.84;5036065;28;45547;-53
2023/01/30 05:46:48;;;;;;;;;26.50;21.75;;;;;6.13;69.99;101697.91;5019036;28;45417;-51
2023/01/30 05:49:13;;;;;;;;;28.00;25.00;;;;;6.10;69.80;101690.03;5036868;28;45493;-55
2023/01/30 05:51:39;;;;;;;;;35.00;31.00;;;;;6.14;69.80;101689.16;5036471;28;46008;-53
2023/01/30 05:54:04;;;;;;;;;32.25;28.00;;;;;6.14;70.05;101691.78;5036681;28;45475;-52
2023/01/30 05:56:32;;;;;;;;;27.50;27.50;;;;;6.16;70.09;101693.53;5036749;28;45624;-56
2023/01/30 05:58:59;;;;;;;;;35.00;27.00;;;;;6.16;70.19;101695.28;5036060;28;45555;-55
2023/01/30 06:01:26;;;;;;;;;23.25;23.00;;;;;6.16;70.52;101697.88;5035546;28;45463;-50
2023/01/30 06:03:52;;;;;;;;;21.50;21.50;;;;;6.10;71.25;101700.47;5036676;28;45458;-54
2023/01/30 06:06:18;;;;;;;;;23.75;23.75;;;;;6.09;71.34;101689.16;5017464;28;45464;-54
2023/01/30 06:08:43;;;;;;;;;29.00;27.00;;;;;6.11;71.37;101692.66;5034154;28;45544;-50
2023/01/30 06:11:14;;;;;;;;;26.75;22.75;;;;;6.12;71.36;101694.38;5035445;28;45565;-50
2023/01/30 06:13:40;;;;;;;;;31.00;29.50;;;;;6.14;71.81;101695.25;5035658;28;45529;-53
2023/01/30 06:16:07;;;;;;;;;25.25;25.25;;;;;6.12;71.70;101691.78;5036389;28;45508;-55
2023/01/30 06:18:33;;;;;;;;;29.75;25.50;;;;;6.09;71.98;101683.94;5036256;28;45519;-50
2023/01/30 06:20:59;;;;;;;;;32.25;29.25;;;;;6.14;71.81;101691.78;5018131;28;45491;-50
2023/01/30 06:23:24;;;;;;;;;26.25;24.75;;;;;6.14;72.15;101681.34;5017970;28;45453;-50
2023/01/30 06:25:51;;;;;;;;;27.50;24.75;;;;;6.10;72.11;101666.53;5036149;28;45449;-55
2023/01/30 06:28:16;;;;;;;;;27.50;25.50;;;;;6.09;71.97;101656.97;5018140;28;45632;-49
2023/01/30 06:30:42;;;;;;;;;36.00;34.00;;;;;6.08;72.21;101665.69;5034266;28;46191;-54
2023/01/30 06:33:08;;;;;;;;;34.25;31.50;;;;;6.11;72.34;101666.53;5033433;28;45508;-51
2023/01/30 06:35:39;;;;;;;;;26.75;25.50;;;;;6.12;72.09;101672.63;5044756;28;45384;-52
2023/01/30 06:38:05;;;;;;;;;27.00;25.75;;;;;6.11;72.32;101671.75;5035921;28;45452;-49
2023/01/30 06:40:30;;;;;;;;;30.75;28.50;;;;;6.12;72.45;101680.47;5041640;28;46074;-50
2023/01/30 06:42:56;;;;;;;;;34.00;28.25;;;;;6.11;72.46;101689.19;5017445;28;45407;-49
2023/01/30 06:45:21;;;;;;;;;28.75;26.25;;;;;6.11;72.03;101689.19;5017632;28;45398;-52
2023/01/30 06:47:48;;;;;;;;;24.00;19.75;;;;;6.12;72.49;101685.69;5034277;28;45585;-53
2023/01/30 06:50:16;;;;;;;;;27.25;25.50;;;;;6.14;72.48;101700.47;5018580;28;45450;-48
2023/01/30 06:52:42;;;;;;;;;25.50;24.50;;;;;6.16;72.45;101706.59;5022404;28;45553;-51
2023/01/30 06:55:10;;;;;;;;;29.25;25.75;;;;;6.20;72.37;101725.72;5034388;28;45459;-55
2023/01/30 06:57:35;;;;;;;;;31.50;28.50;;;;;6.23;72.12;101724.88;5036061;28;45520;-50
2023/01/30 07:00:03;;;;;;;;;23.50;23.50;;;;;6.27;72.58;101731.84;5035450;28;53531;-55
2023/01/30 07:02:31;;;;;;;;;26.00;23.75;;;;;6.30;72.53;101730.09;5034435;28;45368;-53
2023/01/30 07:04:56;;;;;;;;;28.00;25.00;;;;;6.30;72.41;101743.16;5034376;28;45353;-51
2023/01/30 07:07:21;;;;;;;;;24.50;20.75;;;;;6.30;72.90;101737.94;5034104;28;45574;-52
2023/01/30 07:09:47;;;;;;;;;37.50;31.75;;;;;6.27;72.79;101737.94;5035010;28;45384;-52
2023/01/30 07:12:12;;;;;;;;;30.75;26.00;;;;;6.24;72.49;101743.16;5034582;28;45523;-51
2023/01/30 07:14:37;;;;;;;;;27.25;24.50;;;;;6.27;72.49;101745.78;5035336;28;49055;-50
2023/01/30 07:17:03;;;;;;;;;32.25;29.50;;;;;6.28;72.89;101742.28;5043483;28;45546;-52
2023/01/30 07:19:28;;;;;;;;;24.00;21.00;;;;;6.28;73.17;101749.25;5034249;28;46306;-50
2023/01/30 07:21:53;;;;;;;;;29.75;22.50;;;;;6.26;72.96;101754.50;5035512;28;48747;-47
2023/01/30 07:24:19;;;;;;;;;27.00;25.75;;;;;6.24;73.50;101753.63;5034705;28;46040;-53
2023/01/30 07:26:46;;;;;;;;;26.50;25.00;;;;;6.26;73.32;101751.00;5035613;28;45464;-50
2023/01/30 07:29:12;;;;;;;;;29.75;27.75;;;;;6.28;73.27;101746.66;5035165;28;46119;-52
2023/01/30 07:31:37;;;;;;;;;33.25;27.50;;;;;6.31;73.47;101749.25;5034231;28;45533;-48
2023/01/30 07:34:02;;;;;;;;;19.00;19.00;;;;;6.30;73.71;101756.22;5021803;28;45372;-50
2023/01/30 07:36:28;;;;;;;;;27.25;24.00;;;;;6.29;73.72;101764.94;5035069;28;45562;-51
2023/01/30 07:38:53;;;;;;;;;23.50;23.50;;;;;6.33;73.40;101763.19;5034510;28;48129;-49
2023/01/30 07:41:18;;;;;;;;;31.50;25.25;;;;;6.34;73.66;101775.38;5034552;28;45432;-54
2023/01/30 07:43:43;;;;;;;;;29.00;26.50;;;;;6.35;73.44;101769.31;5034845;28;45516;-47
2023/01/30 07:46:09;;;;;;;;;25.50;24.75;;;;;6.31;73.83;101775.38;5033674;28;46252;-51
2023/01/30 07:48:34;;;;;;;;;21.75;20.00;;;;;6.28;74.01;101763.19;5032617;28;45428;-51
2023/01/30 07:50:59;;;;;;;;;26.50;23.00;;;;;6.27;74.15;101773.66;5034347;28;51256;-52
2023/01/30 07:53:25;;;;;;;;;28.00;21.75;;;;;6.31;74.59;101773.63;5034538;28;45451;-55
2023/01/30 07:55:50;;;;;;;;;24.25;24.25;;;;;6.34;74.31;101770.16;5016785;28;45583;-52
2023/01/30 07:58:16;;;;;;;;;28.75;28.00;;;;;6.31;74.59;101751.88;5033964;28;45447;-51
2023/01/30 08:00:41;;;;;;;;;32.25;26.00;;;;;6.37;74.66;101760.59;5034450;28;45398;-52
2023/01/30 08:03:11;;;;;;;;;27.00;24.00;;;;;6.40;74.53;101773.66;5034421;28;45393;-54
2023/01/30 08:05:36;;;;;;;;;31.75;30.50;;;;;6.40;75.44;101772.78;5034541;28;45385;-55
2023/01/30 08:08:02;;;;;;;;;26.50;21.50;;;;;6.41;75.11;101775.38;5031527;28;49565;-49
2023/01/30 08:10:27;;;;;;;;;19.25;17.75;;;;;6.40;74.86;101757.13;5034245;28;45421;-52
2023/01/30 08:12:53;;;;;;;;;25.00;22.00;;;;;6.46;74.83;101764.94;5034470;28;45416;-49
2023/01/30 08:15:18;;;;;;;;;27.50;24.25;;;;;6.49;75.02;101772.78;5035928;28;45479;-53
2023/01/30 08:17:44;;;;;;;;;24.50;23.50;;;;;6.52;75.03;101766.69;5019483;28;47153;-51
2023/01/30 08:20:10;;;;;;;;;21.00;19.00;;;;;6.51;75.33;101772.81;5037835;28;45424;-54
2023/01/30 08:22:35;;;;;;;;;28.25;24.00;;;;;6.52;75.68;101769.31;5037757;28;45435;-53
2023/01/30 08:25:00;;;;;;;;;27.75;27.50;;;;;6.54;75.30;101762.34;5037524;28;45631;-52
2023/01/30 08:27:26;;;;;;;;;28.75;25.00;;;;;6.55;75.04;101764.94;5037380;28;45519;-54
2023/01/30 08:29:51;;;;;;;;;26.75;21.50;;;;;6.53;75.34;101771.03;5037503;28;48254;-52
2023/01/30 08:32:16;;;;;;;;;29.00;26.25;;;;;6.52;74.87;101774.53;5037381;28;45408;-54
2023/01/30 08:34:42;;;;;;;;;25.50;20.75;;;;;6.52;74.96;101779.75;5037623;28;45412;-53
2023/01/30 08:37:07;;;;;;;;;27.00;23.00;;;;;6.51;74.76;101778.03;5036446;28;46129;-53
2023/01/30 08:39:32;;;;;;;;;30.25;25.00;;;;;6.55;74.59;101785.84;5037099;28;45410;-51
2023/01/30 08:41:57;;;;;;;;;33.75;27.75;;;;;6.54;75.04;101773.66;5037326;28;45389;-47
2023/01/30 08:44:23;;;;;;;;;28.00;24.50;;;;;6.57;74.68;101794.56;5036988;28;49441;-49
2023/01/30 08:46:48;;;;;;;;;26.50;22.00;;;;;6.60;74.64;101789.34;5037163;28;46400;-56
2023/01/30 08:49:14;;;;;;;;;26.00;24.50;;;;;6.62;75.17;101803.28;5037177;28;45463;-50
2023/01/30 08:51:39;;;;;;;;;24.50;22.50;;;;;6.62;75.23;101792.84;5037099;28;45461;-48
2023/01/30 08:54:06;;;;;;;;;29.50;27.00;;;;;6.66;75.07;101793.69;5037349;28;45483;-53
2023/01/30 08:56:32;;;;;;;;;28.25;23.75;;;;;6.62;75.16;101790.22;5036936;28;46200;-53
2023/01/30 08:58:57;;;;;;;;;31.50;25.25;;;;;6.64;75.03;101785.00;5036687;28;45341;-49
2023/01/30 09:01:22;;;;;;;;;32.00;25.75;;;;;6.64;74.39;101792.84;5037259;28;45337;-53
2023/01/30 09:03:48;;;;;;;;;24.75;21.50;;;;;6.64;74.73;101803.31;5037353;28;45658;-53
2023/01/30 09:06:13;;;;;;;;;24.50;20.75;;;;;6.62;74.86;101792.84;5036985;28;46378;-54
2023/01/30 09:08:38;;;;;;;;;26.00;23.50;;;;;6.65;75.08;101807.66;5035794;28;45367;-49
2023/01/30 09:11:05;;;;;;;;;26.00;24.25;;;;;6.67;74.89;101811.13;5037098;28;45388;-53
2023/01/30 09:13:31;;;;;;;;;27.75;21.50;;;;;6.71;75.07;101815.47;5036916;28;45381;-50
2023/01/30 09:15:57;;;;;;;;;23.00;20.75;;;;;6.72;75.18;101806.78;5036807;28;45654;-54
2023/01/30 09:18:24;;;;;;;;;22.00;21.75;;;;;6.74;74.93;101812.88;5036648;28;45479;-51
2023/01/30 09:20:49;;;;;;;;;23.50;22.50;;;;;6.75;74.55;101809.41;5036929;28;45503;-51
2023/01/30 09:23:15;;;;;;;;;21.50;21.50;;;;;6.75;75.22;101817.25;5036747;28;45523;-54
2023/01/30 09:25:40;;;;;;;;;21.00;21.00;;;;;6.73;75.26;101821.59;5036127;28;45386;-56
2023/01/30 09:28:06;;;;;;;;;27.00;24.50;;;;;6.69;75.09;101808.50;5036675;28;45398;-53
2023/01/30 09:30:32;;;;;;;;;20.25;17.25;;;;;6.73;75.76;101807.66;5036531;28;45439;-53
2023/01/30 09:32:57;;;;;;;;;23.50;22.00;;;;;6.71;76.12;101812.88;5036458;28;45496;-54
2023/01/30 09:35:23;;;;;;;;;23.75;22.00;;;;;6.75;75.97;101813.75;5036338;28;46309;-52
2023/01/30 09:37:50;;;;;;;;;23.75;23.50;;;;;6.75;76.05;101816.38;5028140;28;48581;-52
2023/01/30 09:40:26;;;;;;;;;27.50;25.00;;;;;6.76;76.21;101824.19;5035259;28;45472;-54
2023/01/30 09:43:13;;;;;;;;;29.00;19.75;;;;;6.74;75.97;101807.63;5036448;28;45472;-48
2023/01/30 09:46:00;;;;;;;;;19.50;19.50;;;;;6.79;75.62;101818.09;5036442;28;46455;-50
2023/01/30 09:48:38;;;;;;;;;23.75;19.25;;;;;6.79;75.99;101805.88;5036263;28;45456;-54
2023/01/30 09:51:10;;;;;;;;;22.75;21.00;;;;;6.82;76.41;101805.91;5036556;28;45456;-54
2023/01/30 09:53:40;;;;;;;;;21.25;21.25;;;;;6.80;76.46;101807.66;5036307;28;45417;-54
2023/01/30 09:56:06;;;;;;;;;20.75;18.25;;;;;6.85;76.47;101808.53;5036051;28;45468;-53
2023/01/30 09:58:44;;;;;;;;;21.25;21.25;;;;;6.85;76.54;101805.00;5035640;28;45460;-52
2023/01/30 10:01:29;;;;;;;;;23.75;20.75;;;;;6.90;77.53;101807.63;5036335;28;45448;-54
2023/01/30 10:04:12;;;;;;;;;21.50;18.75;;;;;6.82;77.35;101812.88;5036117;28;45446;-52
2023/01/30 10:06:48;;;;;;;;;20.25;20.25;;;;;6.85;77.97;101826.84;5034617;28;47337;-54
2023/01/30 10:09:32;;;;;;;;;18.25;16.75;;;;;6.88;77.33;101814.59;5035490;28;45427;-52
2023/01/30 10:12:24;;;;;;;;;24.50;20.50;;;;;6.92;77.04;101827.69;5035810;28;45356;-46
2023/01/30 10:15:01;;;;;;;;;26.75;23.25;;;;;6.98;77.23;101826.81;5025038;28;45577;-54
2023/01/30 10:17:50;;;;;;;;;20.00;18.00;;;;;6.95;77.71;101817.22;5035907;28;45483;-52
2023/01/30 10:20:34;;;;;;;;;24.25;23.00;;;;;6.92;77.43;101812.00;5035822;28;45464;-56
2023/01/30 10:23:32;;;;;;;;;20.75;19.75;;;;;6.95;77.67;101835.53;5036066;28;45385;-51
2023/01/30 10:26:27;;;;;;;;;23.00;20.25;;;;;7.02;77.87;101839.03;5035906;28;45501;-53
2023/01/30 10:29:04;;;;;;;;;20.50;17.50;;;;;7.07;77.28;101837.28;5018559;28;46121;-51
2023/01/30 10:31:39;;;;;;;;;22.50;18.00;;;;;7.10;77.27;101841.63;5035513;28;45536;-50
2023/01/30 10:34:12;;;;;;;;;19.50;18.50;;;;;7.11;77.52;101836.38;5033071;28;45429;-52
2023/01/30 10:37:00;;;;;;;;;17.00;17.00;;;;;7.14;77.17;101845.97;5035301;28;45427;-53
2023/01/30 10:39:48;;;;;;;;;18.75;17.00;;;;;7.15;77.62;101830.28;5034895;28;45519;-52
2023/01/30 10:42:23;;;;;;;;;15.75;15.75;;;;;7.20;77.53;101835.50;5035662;28;45491;-51
2023/01/30 10:44:48;;;;;;;;;17.50;17.50;;;;;7.19;76.95;101821.56;5035576;28;45458;-53
2023/01/30 10:48:02;;;;;;;;;19.75;18.50;;;;;7.25;76.93;101803.25;5035509;28;45555;-55
2023/01/30 10:50:32;;;;;;;;;22.25;17.50;;;;;7.27;77.17;101798.00;5035346;28;46261;-50
2023/01/30 10:53:10;;;;;;;;;20.75;18.50;;;;;7.30;77.33;101808.44;5035296;28;45408;-47
2023/01/30 10:55:49;;;;;;;;;20.00;15.00;;;;;7.29;77.98;101810.19;5035442;28;45510;-53
2023/01/30 10:58:33;;;;;;;;;20.50;19.00;;;;;7.32;77.88;101806.69;5035314;28;45496;-50
2023/01/30 11:01:06;;;;;;;;;18.50;16.00;;;;;7.36;77.17;101805.84;5035280;28;46405;-49
2023/01/30 11:03:40;;;;;;;;;19.75;18.00;;;;;7.39;77.62;101804.94;5034089;28;45515;-51
2023/01/30 11:06:30;;;;;;;;;11.25;11.25;;;;;7.37;78.10;101811.94;5035185;28;45454;-53
2023/01/30 11:08:55;;;;;;;;;19.50;16.75;;;;;7.43;77.47;101812.78;5034955;28;45347;-50
2023/01/30 11:11:31;;;;;;;;;19.50;19.00;;;;;7.47;77.42;101809.28;5034884;28;46226;-50
2023/01/30 11:14:00;;;;;;;;;12.00;11.25;;;;;7.49;77.65;101793.56;5034891;28;45504;-52
2023/01/30 11:16:26;;;;;;;;;17.50;14.50;;;;;7.55;77.64;101811.00;5034953;28;45472;-55
2023/01/30 11:18:52;;;;;;;;;17.00;16.00;;;;;7.58;77.59;101809.25;5034862;28;45659;-53
2023/01/30 11:21:27;;;;;;;;;17.75;15.25;;;;;7.61;77.66;101818.84;5034926;28;46463;-51
2023/01/30 11:23:53;;;;;;;;;12.00;12.00;;;;;7.65;76.98;101799.63;5034694;28;45400;-54
2023/01/30 11:26:29;;;;;;;;;13.25;13.25;;;;;7.66;77.95;101802.25;5034922;28;45503;-49
2023/01/30 11:28:54;;;;;;;;;12.00;11.75;;;;;7.72;77.41;101794.34;5034853;28;45519;-52
2023/01/30 11:31:24;;;;;;;;;13.25;13.25;;;;;7.75;77.15;101796.94;5034408;28;45451;-53